Time;durP1;ratioP1;P1;durP2;ratioP2;P2;SDS_P1;SDS_P2;PMS_P1;PMS_P2;Temp;Humidity;BMP_temperature;BMP_pressure;BME280_temperature;BME280_humidity;BME280_pressure;Samples;Min_cycle;Max_cycle;Signal;HPM_P1;HPM_P2
2022/06/10 00:01:20;;;;;;;6.13;2.60;;;;;;;12.13;100.00;101993.88;4920198;29;20052;-82
2022/06/10 00:03:49;;;;;;;8.50;2.72;;;;;;;12.09;100.00;101988.53;4899147;29;20048;-82
2022/06/10 00:06:17;;;;;;;13.10;2.92;;;;;;;12.06;100.00;101993.81;4896510;29;20397;-83
2022/06/10 00:08:48;;;;;;;13.60;3.47;;;;;;;12.06;100.00;101995.53;4897276;29;20451;-82
2022/06/10 00:11:16;;;;;;;7.35;2.78;;;;;;;12.02;100.00;101991.06;4896166;29;20048;-82
2022/06/10 00:13:46;;;;;;;4.82;2.28;;;;;;;11.99;100.00;101993.69;4891713;29;21536;-82
2022/06/10 00:16:17;;;;;;;9.50;3.30;;;;;;;11.96;100.00;101991.84;4896185;29;20055;-82
2022/06/10 00:18:46;;;;;;;10.43;3.42;;;;;;;11.94;100.00;101990.94;4883317;29;20043;-82
2022/06/10 00:21:17;;;;;;;9.25;2.75;;;;;;;11.91;100.00;101998.84;4902460;29;20067;-82
2022/06/10 00:23:45;;;;;;;10.57;3.28;;;;;;;11.88;100.00;101996.09;4927152;28;20044;-82
2022/06/10 00:26:14;;;;;;;10.05;2.78;;;;;;;11.86;100.00;101998.72;4914512;29;20051;-82
2022/06/10 00:28:43;;;;;;;6.22;2.78;;;;;;;11.83;100.00;101998.69;4883231;29;20281;-83
2022/06/10 00:31:13;;;;;;;9.85;3.53;;;;;;;11.83;100.00;101992.50;4880618;29;20052;-83
2022/06/10 00:33:49;;;;;;;6.88;2.75;;;;;;;11.83;100.00;101989.84;4902485;29;20055;-82
2022/06/10 00:36:17;;;;;;;9.00;2.72;;;;;;;11.81;100.00;101989.81;4907057;29;20051;-83
2022/06/10 00:38:46;;;;;;;9.23;2.35;;;;;;;11.79;100.00;101986.28;4893726;29;20438;-83
2022/06/10 00:41:15;;;;;;;10.48;3.30;;;;;;;11.78;100.00;101988.91;4896119;29;20055;-82
2022/06/10 00:43:47;;;;;;;5.57;2.90;;;;;;;11.76;100.00;101994.16;4918207;29;20264;-83
2022/06/10 00:46:36;;;;;;;3.28;2.13;;;;;;;11.74;100.00;101994.97;4897554;29;20063;-83
2022/06/10 00:49:05;;;;;;;5.97;2.33;;;;;;;11.73;100.00;101999.38;4902955;29;20496;-82
2022/06/10 00:51:47;;;;;;;6.53;3.10;;;;;;;11.72;100.00;101992.34;4905360;28;20040;-83
2022/06/10 00:54:35;;;;;;;6.00;2.40;;;;;;;11.70;100.00;101992.31;4923044;29;20047;-82
2022/06/10 00:57:19;;;;;;;6.10;2.25;;;;;;;11.69;100.00;102001.06;4901906;29;20055;-82
2022/06/10 00:59:53;;;;;;;13.05;2.95;;;;;;;11.66;100.00;101995.78;4921622;29;20437;-82
2022/06/10 01:02:36;;;;;;;10.15;3.25;;;;;;;11.65;100.00;101993.97;4886027;29;20502;-81
2022/06/10 01:05:14;;;;;;;11.45;3.00;;;;;;;11.64;100.00;101991.31;4906149;29;20059;-82
2022/06/10 01:07:58;;;;;;;11.57;3.03;;;;;;;11.63;100.00;101994.81;4936994;29;20047;-81
2022/06/10 01:10:29;;;;;;;8.27;2.35;;;;;;;11.61;100.00;101993.91;4907808;29;20036;-81
2022/06/10 01:13:16;;;;;;;13.23;2.85;;;;;;;11.59;100.00;101993.00;4910356;29;20048;-81
2022/06/10 01:15:57;;;;;;;8.02;2.35;;;;;;;11.57;100.00;101994.69;4933287;29;20020;-81
2022/06/10 01:18:37;;;;;;;;;;;;;;;11.54;100.00;101986.75;4902250;29;20082;-81
2022/06/10 01:21:25;;;;;;;9.68;2.33;;;;;;;11.52;100.00;101991.97;4922396;29;19929;-82
2022/06/10 01:24:43;;;;;;;8.35;2.35;;;;;;;11.51;100.00;101998.09;4922832;28;20059;-82
2022/06/10 01:27:48;;;;;;;6.65;2.63;;;;;;;11.48;100.00;101987.53;4905131;29;20059;-80
2022/06/10 01:30:48;;;;;;;13.23;3.08;;;;;;;11.45;100.00;101985.69;4919122;29;20366;-81
2022/06/10 01:33:44;;;;;;;9.40;2.80;;;;;;;11.42;100.00;101990.06;4890786;29;20044;-81
2022/06/10 01:36:34;;;;;;;9.82;3.45;;;;;;;11.40;100.00;101981.19;4916529;29;20155;-82
2022/06/10 01:39:28;;;;;;;6.38;2.50;;;;;;;11.39;100.00;101987.34;4920346;29;20040;-82
2022/06/10 01:42:25;;;;;;;7.05;2.38;;;;;;;11.36;100.00;101982.00;4927512;29;20048;-81
2022/06/10 01:45:02;;;;;;;9.88;3.45;;;;;;;11.34;100.00;101981.97;4911802;29;20037;-83
2022/06/10 01:47:44;;;;;;;9.23;2.80;;;;;;;11.33;100.00;101980.22;4922075;29;20044;-81
2022/06/10 01:50:21;;;;;;;8.75;2.92;;;;;;;11.31;100.00;101980.19;4877820;29;20269;-82
2022/06/10 01:53:07;;;;;;;8.10;2.60;;;;;;;11.31;100.00;101980.19;4902122;29;20040;-82
2022/06/10 01:56:01;;;;;;;6.93;2.38;;;;;;;11.30;100.00;101975.78;4923184;29;20056;-81
2022/06/10 01:58:40;;;;;;;9.00;2.70;;;;;;;11.28;100.00;101980.09;4927378;29;20059;-82
2022/06/10 02:01:15;;;;;;;11.48;2.90;;;;;;;11.27;100.00;101973.06;4915645;29;20036;-82
2022/06/10 02:03:59;;;;;;;7.40;2.70;;;;;;;11.27;100.00;101980.09;4917974;29;20048;-82
2022/06/10 02:06:38;;;;;;;9.25;2.53;;;;;;;11.24;100.00;101973.00;4931307;28;20072;-83
2022/06/10 02:09:15;;;;;;;7.97;2.90;;;;;;;11.25;100.00;101980.06;4925187;29;20055;-82
2022/06/10 02:11:50;;;;;;;11.02;2.63;;;;;;;11.24;100.00;101975.66;4919479;29;20043;-83
2022/06/10 02:14:51;;;;;;;9.13;3.25;;;;;;;11.23;100.00;101973.00;4907587;29;20024;-81
2022/06/10 02:17:24;;;;;;;6.78;2.97;;;;;;;11.23;100.00;101976.53;4905546;29;20048;-83
2022/06/10 02:19:58;;;;;;;10.38;2.67;;;;;;;11.21;100.00;101980.88;4926083;29;20409;-81
2022/06/10 02:22:37;;;;;;;9.52;2.58;;;;;;;11.20;100.00;101984.38;4890104;29;20040;-81
2022/06/10 02:25:07;;;;;;;10.13;2.90;;;;;;;11.19;100.00;101977.34;4910729;29;20055;-83
2022/06/10 02:27:40;;;;;;;8.77;3.17;;;;;;;11.18;100.00;101986.09;4905578;29;20043;-81
2022/06/10 02:30:09;;;;;;;8.02;2.80;;;;;;;11.17;100.00;101986.97;4902677;29;20060;-81
2022/06/10 02:32:42;;;;;;;10.95;3.53;;;;;;;11.17;100.00;101984.34;4921509;29;20063;-81
2022/06/10 02:35:14;;;;;;;9.25;3.10;;;;;;;11.16;100.00;102003.66;4855961;29;21805;-81
2022/06/10 02:38:09;;;;;;;5.63;2.78;;;;;;;11.15;100.00;102006.25;4887263;29;20402;-81
2022/06/10 02:40:52;;;;;;;7.22;3.00;;;;;;;11.15;100.00;101995.69;4917446;29;20401;-81
2022/06/10 02:43:48;;;;;;;6.85;2.95;;;;;;;11.11;100.00;102000.94;4895918;29;20040;-81
2022/06/10 02:46:40;;;;;;;10.43;3.30;;;;;;;11.11;100.00;102000.94;4900008;29;20048;-82
2022/06/10 02:49:15;;;;;;;8.43;3.17;;;;;;;11.07;100.00;101996.44;4910926;29;20048;-81
2022/06/10 02:51:45;;;;;;;11.48;3.45;;;;;;;11.04;100.00;101996.38;4890325;29;20130;-82
2022/06/10 02:54:24;;;;;;;11.48;3.45;;;;;;;11.02;100.00;102006.03;4913926;29;20074;-80
2022/06/10 02:56:53;;;;;;;9.02;3.30;;;;;;;11.01;100.00;102006.00;4885197;29;20056;-83
2022/06/10 03:02:21;;;;;;;8.63;3.15;;;;;;;10.98;100.00;102008.56;4919858;29;20616;-81
2022/06/10 03:04:50;;;;;;;9.38;3.63;;;;;;;10.98;100.00;102008.56;4920479;29;20382;-83
2022/06/10 03:07:43;;;;;;;16.08;3.47;;;;;;;10.96;100.00;102005.00;4887598;29;20071;-82
2022/06/10 03:10:23;;;;;;;8.68;3.03;;;;;;;10.93;100.00;102012.00;4902992;29;20079;-81
2022/06/10 03:13:11;;;;;;;10.75;3.75;;;;;;;10.92;100.00;102009.31;4916795;29;20040;-81
2022/06/10 03:16:03;;;;;;;4.97;3.60;;;;;;;10.90;100.00;102011.91;4921758;29;20416;-80
2022/06/10 03:19:01;;;;;;;8.23;3.10;;;;;;;10.88;100.00;102018.91;4896702;29;20044;-81
2022/06/10 03:21:55;;;;;;;10.80;3.53;;;;;;;10.87;100.00;102011.00;4879764;29;20052;-82
2022/06/10 03:24:39;;;;;;;11.02;3.45;;;;;;;10.87;100.00;102008.34;4915274;29;20052;-81
2022/06/10 03:27:33;;;;;;;9.45;3.67;;;;;;;10.85;100.00;102015.31;4925245;28;20456;-81
2022/06/10 03:30:06;;;;;;;9.32;3.00;;;;;;;10.85;100.00;102016.22;4916489;29;20036;-81
2022/06/10 03:33:04;;;;;;;13.20;3.80;;;;;;;10.83;100.00;102015.31;4918834;29;20044;-80
2022/06/10 03:35:42;;;;;;;11.02;4.03;;;;;;;10.83;100.00;102004.75;4915347;29;20044;-80
2022/06/10 03:38:12;;;;;;;9.80;3.92;;;;;;;10.83;100.00;102020.59;4888641;29;20051;-81
2022/06/10 03:40:42;;;;;;;10.55;3.97;;;;;;;10.83;100.00;102007.41;4918352;29;20059;-81
2022/06/10 03:43:14;;;;;;;8.73;3.60;;;;;;;10.84;100.00;102009.16;4892352;29;20437;-82
2022/06/10 03:45:47;;;;;;;16.98;4.22;;;;;;;10.86;100.00;102009.19;4900950;29;20044;-81
2022/06/10 03:48:19;;;;;;;8.35;4.47;;;;;;;10.86;100.00;102009.19;4915031;29;20052;-81
2022/06/10 03:50:50;;;;;;;7.47;3.63;;;;;;;10.85;100.00;102013.59;4899467;29;20063;-81
2022/06/10 03:53:24;;;;;;;10.95;4.13;;;;;;;10.87;100.00;102011.88;4888828;29;20044;-82
2022/06/10 03:55:53;;;;;;;8.48;4.45;;;;;;;10.89;100.00;102007.50;4917146;29;20056;-81
2022/06/10 03:58:23;;;;;;;8.60;3.80;;;;;;;10.89;100.00;102015.44;4926861;28;20056;-81
2022/06/10 04:00:52;;;;;;;7.32;3.25;;;;;;;10.91;100.00;102018.97;4901815;29;20040;-82
2022/06/10 04:03:20;;;;;;;10.23;3.65;;;;;;;10.93;100.00;102011.09;4914157;29;20055;-81
2022/06/10 04:05:55;;;;;;;9.68;3.78;;;;;;;10.94;100.00;102007.59;4893276;29;20039;-81
2022/06/10 04:08:45;;;;;;;11.32;4.68;;;;;;;10.97;100.00;102006.78;4894623;29;20036;-80
2022/06/10 04:11:13;;;;;;;9.77;3.88;;;;;;;11.00;100.00;102007.75;4910583;29;20742;-81
2022/06/10 04:13:44;;;;;;;13.15;3.97;;;;;;;11.03;100.00;102015.69;4899160;29;20071;-80
2022/06/10 04:16:12;;;;;;;10.98;4.47;;;;;;;11.05;100.00;102021.88;4898009;29;20044;-83
2022/06/10 04:18:41;;;;;;;10.70;4.18;;;;;;;11.09;100.00;102021.09;4900698;29;20048;-81
2022/06/10 04:21:10;;;;;;;13.20;3.75;;;;;;;11.13;100.00;102016.75;4894066;29;20151;-82
2022/06/10 04:23:38;;;;;;;10.77;4.45;;;;;;;11.17;100.00;102020.34;4919571;29;20401;-80
2022/06/10 04:26:07;;;;;;;12.40;3.42;;;;;;;11.20;100.00;102023.06;4860104;29;20055;-83
2022/06/10 04:28:36;;;;;;;11.57;3.78;;;;;;;11.24;100.00;102019.63;4895223;29;20037;-81
2022/06/10 04:31:07;;;;;;;12.02;3.70;;;;;;;11.29;100.00;102021.47;4898777;29;20040;-83
2022/06/10 04:33:35;;;;;;;9.68;3.25;;;;;;;11.35;100.00;102022.47;4915412;29;20056;-82
2022/06/10 04:36:05;;;;;;;10.00;4.07;;;;;;;11.39;100.00;102021.66;4911433;29;20059;-82
2022/06/10 04:38:34;;;;;;;8.13;3.42;;;;;;;11.45;100.00;102013.84;4925130;29;20047;-81
2022/06/10 04:41:05;;;;;;;10.40;3.70;;;;;;;11.50;100.00;102014.81;4874564;29;20048;-82
2022/06/10 04:43:34;;;;;;;12.02;3.40;;;;;;;11.55;100.00;102023.72;4875907;29;20521;-82
2022/06/10 04:46:05;;;;;;;13.13;3.60;;;;;;;11.63;100.00;102021.22;4910396;29;20039;-81
2022/06/10 04:48:34;;;;;;;10.60;3.40;;;;;;;11.70;100.00;102020.44;4917130;29;20412;-81
2022/06/10 04:51:03;;;;;;;8.93;3.28;;;;;;;11.79;100.00;102017.09;4882458;29;20044;-81
2022/06/10 04:53:32;;;;;;;13.73;3.63;;;;;;;11.85;100.00;102015.44;4899940;29;20504;-81
2022/06/10 04:56:01;;;;;;;9.50;3.42;;;;;;;11.93;100.00;102020.88;4891376;29;20561;-81
2022/06/10 04:58:29;;;;;;;8.45;4.25;;;;;;;12.02;100.00;102017.47;4885622;29;20051;-81
2022/06/10 05:00:58;;;;;;;12.80;4.00;;;;;;;12.12;100.00;102016.78;4878266;29;20063;-82
2022/06/10 05:03:26;;;;;;;9.60;3.30;;;;;;;12.28;100.00;102015.25;4898215;29;20342;-81
2022/06/10 05:05:55;;;;;;;10.02;3.60;;;;;;;12.95;100.00;102023.22;4900183;29;20051;-82
2022/06/10 05:08:24;;;;;;;9.60;3.40;;;;;;;14.00;100.00;102017.19;4898119;29;20067;-82
2022/06/10 05:10:52;;;;;;;7.25;3.03;;;;;;;15.13;100.00;102020.50;4890682;29;20044;-81
2022/06/10 05:13:21;;;;;;;9.73;2.88;;;;;;;16.20;100.00;102021.50;4883528;29;20305;-81
2022/06/10 05:15:52;;;;;;;6.97;2.92;;;;;;;17.18;100.00;102005.19;4910069;29;20048;-83
2022/06/10 05:18:23;;;;;;;9.15;2.88;;;;;;;18.12;100.00;102012.50;4916583;29;20040;-81
2022/06/10 05:20:53;;;;;;;12.25;3.17;;;;;;;18.90;100.00;102005.44;4918798;29;20044;-84
2022/06/10 05:23:28;;;;;;;6.28;2.78;;;;;;;19.65;100.00;102008.81;4895727;29;20425;-81
2022/06/10 05:25:57;;;;;;;10.38;2.70;;;;;;;20.24;100.00;102000.66;4884178;29;20057;-83
2022/06/10 05:28:26;;;;;;;6.07;2.42;;;;;;;20.86;100.00;101999.47;4909817;29;20048;-81
2022/06/10 05:30:55;;;;;;;10.65;2.95;;;;;;;21.45;100.00;101991.03;4876922;29;20036;-83
2022/06/10 05:33:23;;;;;;;10.43;2.45;;;;;;;22.04;97.10;101982.38;4907153;29;20745;-82
2022/06/10 05:35:52;;;;;;;7.95;2.28;;;;;;;22.67;94.88;101986.03;4897445;29;20043;-82
2022/06/10 05:38:20;;;;;;;8.10;2.40;;;;;;;22.80;89.56;101983.81;4893002;29;20059;-81
2022/06/10 05:40:49;;;;;;;9.63;2.92;;;;;;;22.45;86.49;101981.25;4913466;29;20044;-82
2022/06/10 05:43:17;;;;;;;8.13;2.28;;;;;;;21.95;85.74;101986.19;4885825;29;20052;-82
2022/06/10 05:45:47;;;;;;;8.43;2.30;;;;;;;21.33;85.32;101995.72;4882729;29;20051;-83
2022/06/10 05:48:15;;;;;;;16.13;3.10;;;;;;;20.66;84.97;102000.75;4897435;29;20055;-82
2022/06/10 05:50:45;;;;;;;8.98;2.63;;;;;;;20.02;85.55;102005.56;4919549;29;20040;-82
2022/06/10 05:53:15;;;;;;;7.22;2.38;;;;;;;19.44;87.12;102000.22;4893259;29;20425;-83
2022/06/10 05:55:44;;;;;;;9.75;2.67;;;;;;;18.91;88.88;101996.53;4902926;29;20052;-81
2022/06/10 05:58:13;;;;;;;9.25;3.00;;;;;;;18.53;89.50;102007.66;4859687;29;20048;-84
2022/06/10 06:00:42;;;;;;;15.60;2.65;;;;;;;18.16;90.66;101998.25;4896237;29;20059;-82
2022/06/10 06:03:10;;;;;;;10.80;2.90;;;;;;;17.86;92.26;102012.75;4889718;29;20051;-82
2022/06/10 06:05:39;;;;;;;18.73;2.97;;;;;;;17.53;93.36;102018.31;4913182;29;20513;-81
2022/06/10 06:08:10;;;;;;;15.30;3.05;;;;;;;17.30;95.16;102015.78;4892784;29;20056;-83
2022/06/10 06:10:45;;;;;;;12.13;2.63;;;;;;;17.07;96.73;102018.59;4904267;29;20044;-80
2022/06/10 06:13:14;;;;;;;13.05;3.47;;;;;;;16.92;97.48;102018.69;4882694;29;20052;-80
2022/06/10 06:15:44;;;;;;;13.93;3.10;;;;;;;16.81;98.76;102020.47;4885009;29;20048;-83
2022/06/10 06:18:22;;;;;;;12.90;3.60;;;;;;;16.71;99.61;102019.59;4905991;29;20864;-81
2022/06/10 06:20:51;;;;;;;9.57;3.50;;;;;;;16.58;100.00;102016.09;4894525;29;20055;-80
2022/06/10 06:23:20;;;;;;;9.02;2.55;;;;;;;16.50;100.00;102026.78;4904636;29;20296;-83
2022/06/10 06:25:48;;;;;;;13.98;3.28;;;;;;;16.38;100.00;102027.66;4892286;29;20045;-81
2022/06/10 06:28:24;;;;;;;10.13;3.45;;;;;;;16.35;100.00;102025.03;4878394;29;23719;-82
2022/06/10 06:31:00;;;;;;;8.15;2.83;;;;;;;16.33;100.00;102021.50;4868903;29;20060;-84
2022/06/10 06:33:31;;;;;;;13.27;3.53;;;;;;;16.33;100.00;102025.91;4874345;29;20057;-80
2022/06/10 06:36:00;;;;;;;10.25;3.03;;;;;;;16.30;100.00;102025.94;4853722;29;20052;-81
2022/06/10 06:38:29;;;;;;;12.48;3.45;;;;;;;16.23;100.00;102030.34;4863347;29;20621;-82
2022/06/10 06:41:11;;;;;;;13.20;3.03;;;;;;;16.20;100.00;102025.06;4861046;29;20064;-83
2022/06/10 06:43:45;;;;;;;8.10;2.83;;;;;;;16.20;100.00;102030.38;4820481;29;20080;-82
2022/06/10 06:46:18;;;;;;;14.73;3.13;;;;;;;16.19;100.00;102031.25;4863992;29;20176;-83
2022/06/10 06:48:47;;;;;;;15.20;3.27;;;;;;;16.19;100.00;102028.59;4860714;29;20053;-81
2022/06/10 06:51:16;;;;;;;9.88;3.08;;;;;;;16.22;100.00;102033.00;4837998;29;20072;-82
2022/06/10 06:53:44;;;;;;;14.02;3.40;;;;;;;16.28;100.00;102033.91;4874513;29;20075;-84
2022/06/10 06:56:14;;;;;;;13.23;3.08;;;;;;;16.37;100.00;102033.91;4867979;29;20049;-82
2022/06/10 06:58:43;;;;;;;8.70;3.13;;;;;;;16.38;100.00;102042.75;4828161;29;20045;-84
2022/06/10 07:01:15;;;;;;;9.77;3.03;;;;;;;16.44;100.00;102037.41;4859383;29;20053;-84
2022/06/10 07:03:44;;;;;;;7.40;2.70;;;;;;;16.50;100.00;102039.16;4908110;29;20059;-83
2022/06/10 07:06:15;;;;;;;9.25;3.25;;;;;;;16.52;100.00;102042.72;4905890;29;20083;-84
2022/06/10 07:08:44;;;;;;;13.50;3.22;;;;;;;16.59;100.00;102040.94;4881724;29;20062;-84
2022/06/10 07:11:13;;;;;;;6.20;2.80;;;;;;;16.69;100.00;102048.91;4908084;29;20273;-86
2022/06/10 07:13:43;;;;;;;9.52;2.80;;;;;;;16.76;100.00;102049.75;4879363;29;20048;-82
2022/06/10 07:16:15;;;;;;;11.00;3.50;;;;;;;16.78;100.00;102053.28;4869748;29;20052;-83
2022/06/10 07:18:43;;;;;;;11.60;3.30;;;;;;;16.90;100.00;102045.31;4895197;29;20043;-82
2022/06/10 07:21:15;;;;;;;11.45;3.25;;;;;;;17.04;100.00;102055.00;4887523;29;20352;-83
2022/06/10 07:23:44;;;;;;;9.95;3.80;;;;;;;17.10;100.00;102063.84;4880309;29;20048;-82
2022/06/10 07:26:13;;;;;;;15.27;4.13;;;;;;;17.00;100.00;102062.13;4914317;29;20052;-82
2022/06/10 07:28:47;;;;;;;10.80;4.28;;;;;;;16.83;100.00;102061.31;4895378;29;20412;-83
2022/06/10 07:31:16;;;;;;;13.10;4.30;;;;;;;16.71;100.00;102071.06;4857371;29;20529;-83
2022/06/10 07:33:44;;;;;;;12.98;4.18;;;;;;;16.54;100.00;102076.44;4895375;29;20060;-82
2022/06/10 07:36:13;;;;;;;16.30;4.63;;;;;;;16.38;100.00;102069.34;4880877;29;20257;-83
2022/06/10 07:38:41;;;;;;;12.43;3.95;;;;;;;16.20;100.00;102070.28;4905960;29;20050;-83
2022/06/10 07:44:07;;;;;;;18.20;4.72;;;;;;;16.03;100.00;102067.63;4874937;29;20040;-83
2022/06/10 07:46:36;;;;;;;11.25;3.30;;;;;;;16.06;100.00;102070.25;4885050;29;20036;-82
2022/06/10 07:49:05;;;;;;;11.80;3.20;;;;;;;16.11;100.00;102067.63;4915358;29;20053;-82
2022/06/10 07:51:40;;;;;;;13.38;3.33;;;;;;;16.21;100.00;102061.38;4916739;29;20044;-83
2022/06/10 07:54:09;;;;;;;11.02;3.42;;;;;;;16.33;100.00;102050.75;4889147;29;20051;-84
2022/06/10 07:56:42;;;;;;;13.25;4.10;;;;;;;16.48;100.00;102056.91;4917300;29;20056;-82
2022/06/10 07:59:16;;;;;;;10.80;3.88;;;;;;;16.57;100.00;102057.78;4905716;29;20162;-82
2022/06/10 08:01:58;;;;;;;12.77;4.32;;;;;;;16.72;100.00;102053.31;4858877;29;20053;-82
2022/06/10 08:04:27;;;;;;;15.90;4.75;;;;;;;16.82;100.00;102054.16;4882857;29;20052;-82
2022/06/10 08:06:55;;;;;;;11.00;4.97;;;;;;;16.88;100.00;102059.50;4907555;29;20049;-83
2022/06/10 08:09:24;;;;;;;13.05;5.20;;;;;;;16.87;100.00;102063.06;4899046;29;20043;-82
2022/06/10 08:11:53;;;;;;;13.18;5.10;;;;;;;16.87;100.00;102057.72;4939277;28;20051;-83
2022/06/10 08:14:22;;;;;;;12.80;4.35;;;;;;;16.90;100.00;102058.63;4899997;29;20252;-83
2022/06/10 08:16:53;;;;;;;13.45;4.43;;;;;;;16.90;100.00;102065.69;4869934;29;20052;-82
2022/06/10 08:19:22;;;;;;;12.10;4.68;;;;;;;16.87;100.00;102071.03;4919905;29;20285;-81
2022/06/10 08:24:38;;;;;;;8.35;4.28;;;;;;;16.83;100.00;102069.28;4903006;29;20052;-81
2022/06/10 08:27:06;;;;;;;15.73;5.05;;;;;;;16.85;100.00;102054.19;4890278;29;20052;-82
2022/06/10 08:29:35;;;;;;;14.43;5.13;;;;;;;16.87;100.00;102065.72;4908425;29;20039;-82
2022/06/10 08:32:03;;;;;;;9.93;5.32;;;;;;;16.83;100.00;102061.31;4872718;29;20051;-82
2022/06/10 08:34:32;;;;;;;8.57;4.35;;;;;;;16.84;100.00;102065.72;4877140;29;20067;-81
2022/06/10 08:37:01;;;;;;;7.05;4.22;;;;;;;16.89;100.00;102062.16;4886675;29;20052;-81
2022/06/10 08:39:33;;;;;;;9.10;5.60;;;;;;;16.95;100.00;102069.22;4905769;29;20056;-81
2022/06/10 08:42:07;;;;;;;10.48;4.50;;;;;;;17.00;100.00;102064.78;4911439;29;20375;-82
2022/06/10 08:44:44;;;;;;;9.77;4.57;;;;;;;17.09;100.00;102064.75;4886890;29;20406;-82
2022/06/10 08:47:25;;;;;;;10.15;4.45;;;;;;;17.06;100.00;102072.75;4872410;29;20086;-81
2022/06/10 08:50:23;;;;;;;7.38;4.43;;;;;;;17.12;100.00;102066.50;4922303;29;20051;-81
2022/06/10 08:53:09;;;;;;;7.03;4.50;;;;;;;17.17;100.00;102067.38;4922818;29;20056;-81
2022/06/10 08:55:47;;;;;;;10.00;4.90;;;;;;;17.22;100.00;102062.91;4901133;29;20063;-82
2022/06/10 08:58:29;;;;;;;10.10;4.50;;;;;;;17.28;100.00;102064.66;4892466;29;20055;-81
2022/06/10 09:01:05;;;;;;;10.90;4.95;;;;;;;17.24;100.00;102054.88;4909526;29;20059;-81
2022/06/10 09:03:41;;;;;;;9.73;4.63;;;;;;;17.13;100.00;102063.84;4874760;29;20055;-81
2022/06/10 09:06:19;;;;;;;10.10;4.75;;;;;;;17.05;100.00;102056.75;4913919;29;20056;-81
2022/06/10 09:08:53;;;;;;;10.60;5.65;;;;;;;17.03;100.00;102066.53;4932200;29;20044;-81
2022/06/10 09:11:40;;;;;;;13.45;5.30;;;;;;;16.99;100.00;102062.13;4886523;29;20389;-82
2022/06/10 09:14:17;;;;;;;11.80;5.25;;;;;;;16.98;100.00;102066.56;4911244;29;20055;-82
2022/06/10 09:16:46;;;;;;;10.77;5.60;;;;;;;16.92;100.00;102072.81;4904749;29;20051;-81
2022/06/10 09:19:51;;;;;;;11.13;5.65;;;;;;;16.88;100.00;102064.81;4886717;29;20268;-82
2022/06/10 09:22:46;;;;;;;15.60;5.30;;;;;;;16.93;100.00;102068.34;4910506;29;20437;-81
2022/06/10 09:25:25;;;;;;;14.63;6.13;;;;;;;16.97;100.00;102063.91;4919188;29;20048;-81
2022/06/10 09:27:58;;;;;;;15.75;5.60;;;;;;;16.98;100.00;102069.22;4900972;29;20052;-82
2022/06/10 09:30:50;;;;;;;16.25;5.78;;;;;;;17.00;100.00;102067.44;4908434;29;20574;-81
2022/06/10 09:33:45;;;;;;;15.40;5.45;;;;;;;17.01;100.00;102063.88;4906952;29;20258;-82
2022/06/10 09:36:22;;;;;;;13.73;5.60;;;;;;;17.01;100.00;102055.88;4881816;29;20099;-81
2022/06/10 09:42:25;;;;;;;16.45;5.93;;;;;;;17.06;100.00;102054.09;4905503;29;20056;-82
2022/06/10 09:45:24;;;;;;;11.15;5.00;;;;;;;17.07;100.00;102060.28;4886271;29;20052;-81
2022/06/10 09:47:56;;;;;;;13.13;4.60;;;;;;;17.04;100.00;102065.66;4890097;29;20052;-83
2022/06/10 09:50:55;;;;;;;10.23;4.93;;;;;;;17.07;100.00;102068.28;4877479;29;20040;-80
2022/06/10 09:53:45;;;;;;;11.50;5.68;;;;;;;17.12;100.00;102059.38;4920853;29;20048;-81
2022/06/10 09:56:29;;;;;;;12.70;5.93;;;;;;;17.24;100.00;102062.88;4923433;29;20250;-81
2022/06/10 09:59:38;;;;;;;14.10;5.82;;;;;;;17.39;100.00;102056.59;4909907;29;20047;-81
2022/06/10 10:02:15;;;;;;;17.95;6.38;;;;;;;17.48;100.00;102053.88;4917643;29;20409;-82
2022/06/10 10:05:00;;;;;;;8.98;5.68;;;;;;;17.51;100.00;102075.19;4918900;29;20509;-82
2022/06/10 10:07:36;;;;;;;18.10;6.65;;;;;;;17.50;100.00;102070.72;4903735;29;20052;-81
2022/06/10 10:10:28;;;;;;;13.23;5.68;;;;;;;17.44;100.00;102071.66;4911592;29;20406;-81
2022/06/10 10:13:43;;;;;;;16.90;6.07;;;;;;;17.42;100.00;102061.91;4912778;29;20141;-82
2022/06/10 10:16:34;;;;;;;15.10;6.40;;;;;;;17.41;100.00;102060.13;4874855;29;20691;-82
2022/06/10 10:19:46;;;;;;;11.68;5.80;;;;;;;17.38;100.00;102063.69;4920793;29;20051;-83
2022/06/10 10:22:45;;;;;;;13.93;5.90;;;;;;;17.38;100.00;102071.69;4873689;29;20083;-82
2022/06/10 10:25:19;;;;;;;9.98;5.07;;;;;;;17.39;100.00;102075.25;4917414;29;20728;-81
2022/06/10 10:27:49;;;;;;;11.02;5.28;;;;;;;17.39;100.00;102073.47;4913173;29;20063;-81
2022/06/10 10:30:33;;;;;;;15.80;5.72;;;;;;;17.38;100.00;102065.50;4900576;29;20409;-81
2022/06/10 10:33:06;;;;;;;12.70;5.32;;;;;;;17.43;100.00;102067.25;4914609;29;20520;-82
2022/06/10 10:35:41;;;;;;;12.25;5.72;;;;;;;17.57;100.00;102068.94;4884215;29;20044;-81
2022/06/10 10:38:14;;;;;;;17.45;5.57;;;;;;;17.67;100.00;102065.28;4911580;29;20067;-80
2022/06/10 10:40:46;;;;;;;16.02;5.88;;;;;;;17.79;100.00;102064.31;4899023;29;20052;-81
2022/06/10 10:43:21;;;;;;;12.80;4.93;;;;;;;17.87;100.00;102059.84;4899876;29;20055;-81
2022/06/10 10:45:59;;;;;;;12.80;5.68;;;;;;;17.90;100.00;102070.47;4899319;29;20047;-82
2022/06/10 10:48:34;;;;;;;11.32;5.05;;;;;;;17.93;100.00;102060.69;4896676;29;20052;-82
2022/06/10 10:51:21;;;;;;;13.20;4.72;;;;;;;17.97;100.00;102066.88;4887629;29;20036;-82
2022/06/10 10:54:20;;;;;;;13.02;5.95;;;;;;;18.01;100.00;102067.75;4902625;29;20052;-82
2022/06/10 10:56:53;;;;;;;17.08;5.40;;;;;;;18.08;100.00;102069.47;4914092;29;20052;-83
2022/06/10 10:59:40;;;;;;;13.48;5.72;;;;;;;18.19;100.00;102059.59;4905037;29;20417;-83
2022/06/10 11:02:46;;;;;;;14.23;6.82;;;;;;;18.40;100.00;102073.63;4897086;29;20048;-81
2022/06/10 11:05:32;;;;;;;11.55;5.45;;;;;;;18.48;100.00;102063.75;4928614;29;20056;-83
2022/06/10 11:08:16;;;;;;;10.50;5.22;;;;;;;18.54;100.00;102061.00;4892404;29;20048;-83
2022/06/10 11:10:53;;;;;;;12.82;5.78;;;;;;;18.57;100.00;102060.97;4900217;29;20040;-84
2022/06/10 11:13:30;;;;;;;12.00;5.20;;;;;;;18.55;100.00;102067.25;4913763;29;20488;-83
2022/06/10 11:16:26;;;;;;;13.88;4.70;;;;;;;18.56;100.00;102066.34;4905453;29;20053;-82
2022/06/10 11:19:16;;;;;;;9.43;5.07;;;;;;;18.54;100.00;102066.34;4915208;29;20044;-82
2022/06/10 11:22:09;;;;;;;9.40;4.68;;;;;;;18.58;100.00;102067.19;4868578;29;20593;-81
2022/06/10 11:24:42;;;;;;;10.07;5.10;;;;;;;18.61;100.00;102073.38;4909977;29;20036;-82
2022/06/10 11:27:29;;;;;;;11.98;5.20;;;;;;;18.61;100.00;102068.03;4900349;29;20052;-82
2022/06/10 11:30:01;;;;;;;9.23;4.70;;;;;;;18.63;100.00;102068.91;4912981;29;20040;-82
2022/06/10 11:32:40;;;;;;;10.98;4.78;;;;;;;18.74;100.00;102070.59;4908135;29;20037;-83
2022/06/10 11:35:38;;;;;;;10.03;5.53;;;;;;;18.75;100.00;102067.91;4907956;29;20063;-82
2022/06/10 11:38:28;;;;;;;11.95;4.85;;;;;;;18.79;100.00;102063.41;4893539;29;20058;-83
2022/06/10 11:41:21;;;;;;;12.73;4.75;;;;;;;18.84;100.00;102072.28;4909137;29;20052;-82
2022/06/10 11:44:16;;;;;;;10.02;4.70;;;;;;;18.82;100.00;102069.63;4902571;29;20056;-81
2022/06/10 11:47:03;;;;;;;13.27;5.10;;;;;;;18.81;100.00;102069.63;4885917;29;20180;-82
2022/06/10 11:49:40;;;;;;;9.38;5.07;;;;;;;18.78;100.00;102064.31;4883768;29;20061;-82
2022/06/10 11:52:26;;;;;;;10.05;4.90;;;;;;;18.67;100.00;102065.31;4902992;29;20040;-83
2022/06/10 11:55:14;;;;;;;9.32;4.90;;;;;;;18.67;100.00;102057.28;4899937;29;20048;-83
2022/06/10 12:00:36;;;;;;;14.20;5.80;;;;;;;18.69;100.00;102065.28;4903860;29;20044;-82
2022/06/10 12:03:27;;;;;;;12.15;4.90;;;;;;;18.67;100.00;102061.75;4916328;29;20060;-82
2022/06/10 12:06:09;;;;;;;8.32;4.50;;;;;;;18.60;100.00;102062.72;4916145;29;20060;-81
2022/06/10 12:08:41;;;;;;;9.45;4.32;;;;;;;18.55;100.00;102053.91;4873749;29;20437;-82
2022/06/10 12:11:24;;;;;;;9.80;4.03;;;;;;;18.50;100.00;102048.59;4907640;29;20048;-83
2022/06/10 12:14:23;;;;;;;7.22;3.88;;;;;;;18.58;100.00;102054.75;4913884;29;20048;-82